AMCO2: Cimarron River nr Ames 4SW

Data processed at Fri May 26 2017 22:53


All information presented herein is the property of the government of the United States of America and may be revised or deleted at any time without prior notice.
Dissemination of this information without the expressed written consent of the Public Affairs Office, Tulsa District U.S. Army Corps of Engineers is strictly prohibited.
These data are gathered electronically and, as presented, have not undergone any form of quality control. These data are not guaranteed to be valid or correct.
Go to home page.
Go to station list.
Go to home page.

Upstream stations:

Downstream station:
Previous Day
Next Day
Current Day
    
SHEF ID:       AMCO2     Cimarron River nr Ames 4SW
STATION TYPE:  

               PRECIP     STAGE  RIV-FLOW   VOLTAGE
                   in        ft       cfs      volt
              Ccp-Rev   Ccp-Rev   Ccp-Rev   Ccp-Rev
(US/Central)
05/26 00:00      0.00      4.50       625     12.90
05/26 01:00      0.00      4.51       634     12.90
05/26 02:00      0.00      4.50       625     12.80
05/26 03:00      0.00      4.49       616     12.80
05/26 04:00      0.00      4.48       610     12.80
05/26 05:00      0.00      4.48       610     12.80
05/26 06:00      0.00      4.49       616     12.80
05/26 07:00      0.00      4.48       610     13.00
05/26 08:00      0.00      4.48       610     13.20
05/26 09:00      0.00      4.47       604     13.50
05/26 10:00      0.00      4.41       568     13.50
05/26 11:00      0.00      4.46       598     13.60
05/26 12:00      0.00      4.45       592     13.90
05/26 13:00      0.00      4.44       586     13.60
05/26 14:00      0.00      4.44       586     13.50
05/26 15:00      0.00      4.44       586     13.90
05/26 16:00      0.00      4.44       586     13.60
05/26 17:00      0.00      4.43       580     13.70
05/26 18:00      0.00      4.42       574     14.00
05/26 19:00      0.00      4.41       568     13.40
05/26 20:00      0.00      4.41       568     13.00
05/26 21:00      0.00      4.41       568     12.90
05/26 22:00      0.00      4.41       568     12.90
05/26 23:00      ----      ----      ----      ----